createdAt,value
2018-12-23T00:00:13.574Z,14.00
2018-12-23T00:02:42.414Z,11.10
2018-12-23T00:05:11.634Z,20.13
2018-12-23T00:07:40.782Z,14.90
2018-12-23T00:10:10.011Z,16.27
2018-12-23T00:12:38.849Z,12.63
2018-12-23T00:15:08.610Z,13.20
2018-12-23T00:17:37.485Z,14.23
2018-12-23T00:20:08.273Z,12.53
2018-12-23T00:22:37.101Z,18.77
2018-12-23T00:25:06.172Z,10.73
2018-12-23T00:27:35.302Z,12.70
2018-12-23T00:30:04.261Z,15.57
2018-12-23T00:32:33.143Z,12.37
2018-12-23T00:35:02.202Z,11.80
2018-12-23T00:37:31.160Z,12.83
2018-12-23T00:39:59.994Z,16.17
2018-12-23T00:42:29.150Z,12.17
2018-12-23T00:44:58.133Z,10.70
2018-12-23T00:47:27.133Z,10.63
2018-12-23T00:49:56.114Z,13.20
2018-12-23T00:52:25.253Z,18.57
2018-12-23T00:54:54.309Z,16.37
2018-12-23T00:57:23.214Z,15.53
2018-12-23T00:59:52.331Z,14.30
2018-12-23T01:02:21.309Z,13.90
2018-12-23T01:04:50.388Z,15.43
2018-12-23T01:07:19.305Z,16.97
2018-12-23T01:09:48.175Z,15.53
2018-12-23T01:12:17.164Z,14.83
2018-12-23T01:14:46.062Z,12.77
2018-12-23T01:17:14.961Z,13.40
2018-12-23T01:19:44.042Z,17.40
2018-12-23T01:22:13.529Z,15.03
2018-12-23T01:24:42.521Z,13.03
2018-12-23T01:27:11.441Z,22.87
2018-12-23T01:29:40.383Z,13.37
2018-12-23T01:32:09.501Z,17.07
2018-12-23T01:34:38.431Z,17.43
2018-12-23T01:37:07.327Z,11.47
2018-12-23T01:39:36.252Z,12.83
2018-12-23T01:42:05.474Z,9.53
2018-12-23T01:47:09.807Z,16.60
2018-12-23T01:49:38.962Z,13.47
2018-12-23T01:52:07.794Z,12.70
2018-12-23T01:54:36.821Z,9.73
2018-12-23T01:57:05.929Z,11.73
2018-12-23T01:59:34.781Z,10.10
2018-12-23T02:02:03.826Z,11.10
2018-12-23T02:04:32.889Z,14.20
2018-12-23T02:07:02.294Z,8.80
2018-12-23T02:09:32.189Z,9.67
2018-12-23T02:12:01.178Z,15.00
2018-12-23T02:14:30.177Z,9.37
2018-12-23T02:16:59.190Z,16.13
2018-12-23T02:19:28.146Z,9.47
2018-12-23T02:21:57.142Z,12.03
2018-12-23T02:24:26.071Z,13.77
2018-12-23T02:26:54.973Z,12.10
2018-12-23T02:29:23.827Z,20.23
2018-12-23T02:31:52.911Z,18.27
2018-12-23T02:34:21.932Z,20.83
2018-12-23T02:36:50.950Z,24.33
2018-12-23T02:39:19.927Z,24.67
2018-12-23T02:41:49.012Z,20.00
2018-12-23T02:44:18.002Z,22.40
2018-12-23T02:46:46.973Z,31.50
2018-12-23T02:49:16.000Z,24.90
2018-12-23T02:51:44.865Z,11.87
2018-12-23T02:54:14.290Z,18.23
2018-12-23T02:56:43.166Z,11.40
2018-12-23T02:59:12.210Z,14.87
2018-12-23T03:01:41.332Z,12.80
2018-12-23T03:04:10.253Z,9.33
2018-12-23T03:06:39.146Z,15.67
2018-12-23T03:09:08.138Z,14.57
2018-12-23T03:11:37.129Z,7.23
2018-12-23T03:14:06.128Z,7.73
2018-12-23T03:16:35.302Z,8.77
2018-12-23T03:19:04.422Z,13.03
2018-12-23T03:21:33.285Z,11.93
2018-12-23T03:24:02.998Z,9.47
2018-12-23T03:26:32.143Z,11.37
2018-12-23T03:29:01.466Z,12.57
2018-12-23T03:31:30.705Z,10.17
2018-12-23T03:33:59.715Z,10.30
2018-12-23T03:36:28.597Z,8.70
2018-12-23T03:38:57.611Z,9.37
2018-12-23T03:41:26.702Z,7.03
2018-12-23T03:43:55.824Z,11.63
2018-12-23T03:46:24.865Z,7.40
2018-12-23T03:48:53.914Z,12.87
2018-12-23T03:51:22.953Z,6.60
2018-12-23T03:53:51.983Z,8.63
2018-12-23T03:56:21.036Z,7.70
2018-12-23T03:58:49.986Z,10.63
2018-12-23T04:01:19.062Z,8.20
2018-12-23T04:03:47.990Z,9.47
2018-12-23T04:06:24.503Z,9.83
2018-12-23T04:08:47.881Z,11.13
2018-12-23T04:11:16.958Z,8.73
2018-12-23T04:13:45.824Z,13.40
2018-12-23T04:16:14.701Z,8.83
2018-12-23T04:18:43.705Z,9.73
2018-12-23T04:21:12.597Z,5.97
2018-12-23T04:26:16.854Z,11.13
2018-12-23T04:28:45.718Z,9.43
2018-12-23T04:31:14.803Z,9.57
2018-12-23T04:33:43.794Z,7.80
2018-12-23T04:36:12.883Z,7.23
2018-12-23T04:38:41.832Z,5.20
2018-12-23T04:41:10.716Z,8.00
2018-12-23T04:43:39.691Z,8.93
2018-12-23T04:46:08.660Z,11.23
2018-12-23T04:48:38.144Z,8.00
2018-12-23T04:51:07.095Z,6.27
2018-12-23T04:53:35.956Z,9.83
2018-12-23T04:56:04.843Z,8.73
2018-12-23T04:58:33.831Z,6.23
2018-12-23T05:01:03.113Z,10.23
2018-12-23T05:03:32.017Z,8.30
2018-12-23T05:06:01.438Z,10.20
2018-12-23T05:08:30.406Z,8.27
2018-12-23T05:10:59.413Z,9.53
2018-12-23T05:13:28.539Z,10.43
2018-12-23T05:15:57.401Z,13.03
2018-12-23T05:18:27.396Z,8.70
2018-12-23T05:20:56.404Z,17.37
2018-12-23T05:23:25.530Z,10.43
2018-12-23T05:25:54.502Z,10.73
2018-12-23T05:28:23.414Z,11.77
2018-12-23T05:30:52.393Z,12.77
2018-12-23T05:33:21.398Z,16.03
2018-12-23T05:35:50.266Z,10.30
2018-12-23T05:38:19.169Z,11.07
2018-12-23T05:40:48.143Z,11.53
2018-12-23T05:43:17.050Z,9.97
2018-12-23T05:45:46.060Z,10.50
2018-12-23T05:48:15.023Z,9.17
2018-12-23T05:50:44.021Z,12.53
2018-12-23T05:53:12.925Z,14.90
2018-12-23T05:55:40.809Z,13.87
2018-12-23T05:58:09.681Z,15.13
2018-12-23T06:00:38.511Z,13.87
2018-12-23T06:03:07.493Z,13.00
2018-12-23T06:05:36.326Z,14.73
2018-12-23T06:08:05.441Z,10.07
2018-12-23T06:10:34.325Z,12.50
2018-12-23T06:13:03.539Z,7.07
2018-12-23T06:15:32.421Z,12.73
2018-12-23T06:18:01.482Z,10.37
2018-12-23T06:20:30.531Z,11.80
2018-12-23T06:22:59.524Z,11.47
2018-12-23T06:25:28.494Z,9.33
2018-12-23T06:27:57.414Z,12.40
2018-12-23T06:30:26.271Z,12.70
2018-12-23T06:32:55.388Z,13.47
2018-12-23T06:35:24.253Z,14.53
2018-12-23T06:37:53.142Z,12.23
2018-12-23T06:40:22.242Z,16.83
2018-12-23T06:42:51.153Z,14.40
2018-12-23T06:45:20.020Z,13.70
2018-12-23T06:47:48.909Z,12.60
2018-12-23T06:50:18.026Z,16.40
2018-12-23T06:52:47.109Z,20.13
2018-12-23T06:55:16.013Z,15.97
2018-12-23T06:57:44.982Z,10.07
2018-12-23T07:00:14.016Z,12.43
2018-12-23T07:02:42.869Z,12.20
2018-12-23T07:05:11.761Z,15.97
2018-12-23T07:07:40.672Z,11.47
2018-12-23T07:10:09.566Z,17.60
2018-12-23T07:12:38.541Z,14.80
2018-12-23T07:15:07.574Z,15.90
2018-12-23T07:17:36.605Z,21.27
2018-12-23T07:20:05.969Z,22.93
2018-12-23T07:22:34.872Z,20.30
2018-12-23T07:25:03.950Z,25.90
2018-12-23T07:27:32.817Z,20.73
2018-12-23T07:30:02.264Z,21.57
2018-12-23T07:32:31.279Z,17.50
2018-12-23T07:35:00.310Z,19.73
2018-12-23T07:37:29.368Z,20.27
2018-12-23T07:39:58.450Z,17.97
2018-12-23T07:42:27.364Z,16.37
2018-12-23T07:44:56.398Z,19.83
2018-12-23T07:47:25.371Z,14.93
2018-12-23T07:49:54.354Z,16.50
2018-12-23T07:52:23.465Z,16.27
2018-12-23T07:54:52.554Z,15.87
2018-12-23T07:57:21.433Z,17.97
2018-12-23T07:59:50.419Z,20.80
2018-12-23T08:02:19.344Z,16.53
2018-12-23T08:04:48.404Z,16.00
2018-12-23T08:07:17.416Z,23.10
2018-12-23T08:09:46.514Z,16.03
2018-12-23T08:12:15.482Z,18.27
2018-12-23T08:14:44.646Z,22.47
2018-12-23T08:17:13.685Z,18.33
2018-12-23T08:19:42.673Z,24.53
2018-12-23T08:22:11.676Z,24.87
2018-12-23T08:24:40.615Z,24.70
2018-12-23T08:27:09.730Z,23.97
2018-12-23T08:29:38.775Z,19.20
2018-12-23T08:32:07.916Z,16.63
2018-12-23T08:34:36.949Z,14.43
2018-12-23T08:37:05.921Z,11.90
2018-12-23T08:39:35.178Z,22.03
2018-12-23T08:42:04.350Z,19.13
2018-12-23T08:44:33.286Z,14.80
2018-12-23T08:47:02.842Z,14.63
2018-12-23T08:49:31.710Z,23.23
2018-12-23T08:52:00.812Z,13.73
2018-12-23T08:54:29.805Z,20.30
2018-12-23T08:56:58.922Z,15.67
2018-12-23T08:59:27.898Z,17.57
2018-12-23T09:01:56.894Z,17.57
2018-12-23T09:04:26.439Z,24.80
2018-12-23T09:06:55.481Z,15.50
2018-12-23T09:09:24.412Z,14.57
2018-12-23T09:11:53.260Z,18.30
2018-12-23T09:14:22.191Z,13.60
2018-12-23T09:16:51.037Z,20.50
2018-12-23T09:19:19.978Z,15.80
2018-12-23T09:21:48.852Z,16.77
2018-12-23T09:24:17.766Z,17.63
2018-12-23T09:26:46.799Z,17.33
2018-12-23T09:29:15.917Z,16.83
2018-12-23T09:31:44.813Z,12.93
2018-12-23T09:34:13.708Z,18.27
2018-12-23T09:36:42.702Z,16.10
2018-12-23T09:39:11.596Z,15.87
2018-12-23T09:41:40.467Z,17.57
2018-12-23T09:44:09.393Z,14.57
2018-12-23T09:46:38.571Z,23.17
2018-12-23T09:49:07.541Z,20.77
2018-12-23T09:51:36.457Z,21.93
2018-12-23T09:54:05.651Z,14.60
2018-12-23T09:56:34.676Z,21.33
2018-12-23T09:59:03.546Z,20.80
2018-12-23T10:01:32.452Z,22.13
2018-12-23T10:04:01.311Z,20.00
2018-12-23T10:06:30.408Z,18.60
2018-12-23T10:08:59.282Z,18.27
2018-12-23T10:11:28.290Z,16.27
2018-12-23T10:13:57.368Z,14.63
2018-12-23T10:16:26.404Z,17.43
2018-12-23T10:18:55.246Z,17.00
2018-12-23T10:21:24.257Z,16.87
2018-12-23T10:23:53.533Z,22.07
2018-12-23T10:26:22.663Z,17.10
2018-12-23T10:28:51.582Z,18.03
2018-12-23T10:31:20.544Z,24.33
2018-12-23T10:33:49.634Z,37.10
2018-12-23T10:36:19.078Z,41.37
2018-12-23T10:38:48.036Z,29.27
2018-12-23T10:41:16.945Z,37.70
2018-12-23T10:43:46.229Z,25.30
2018-12-23T10:46:15.506Z,32.80
2018-12-23T10:48:44.521Z,35.17
2018-12-23T10:51:13.406Z,26.93
2018-12-23T10:53:42.508Z,29.70
2018-12-23T10:56:11.499Z,23.53
2018-12-23T10:58:40.452Z,19.90
2018-12-23T11:01:09.469Z,18.23
2018-12-23T11:03:38.359Z,13.87
2018-12-23T11:06:07.264Z,22.30
2018-12-23T11:08:36.227Z,17.50
2018-12-23T11:11:07.840Z,23.23
2018-12-23T11:13:36.703Z,20.47
2018-12-23T11:16:05.731Z,24.50
2018-12-23T11:18:34.671Z,15.67
2018-12-23T11:21:03.685Z,21.00
2018-12-23T11:23:32.571Z,12.20
2018-12-23T11:26:01.454Z,23.00
2018-12-23T11:28:30.351Z,31.37
2018-12-23T11:30:59.338Z,28.63
2018-12-23T11:33:28.220Z,28.80
2018-12-23T11:35:57.118Z,23.63
2018-12-23T11:38:26.143Z,18.70
2018-12-23T11:40:54.996Z,21.60
2018-12-23T11:43:23.970Z,23.20
2018-12-23T11:45:52.890Z,23.03
2018-12-23T11:48:21.770Z,16.20
2018-12-23T11:50:50.893Z,16.93
2018-12-23T11:53:19.755Z,28.77
2018-12-23T11:55:48.701Z,39.80
2018-12-23T11:58:17.781Z,32.83
2018-12-23T12:00:46.710Z,32.23
2018-12-23T12:03:15.738Z,18.43
2018-12-23T12:05:44.632Z,21.53
2018-12-23T12:08:13.289Z,23.67
2018-12-23T12:10:41.906Z,16.53
2018-12-23T12:13:10.517Z,17.83
2018-12-23T12:15:39.045Z,16.87
2018-12-23T12:18:07.717Z,19.47
2018-12-23T12:20:36.233Z,16.17
2018-12-23T12:23:05.037Z,14.70
2018-12-23T12:25:33.659Z,16.87
2018-12-23T12:28:02.346Z,13.17
2018-12-23T12:30:31.088Z,24.63
2018-12-23T12:32:59.763Z,21.33
2018-12-23T12:35:28.468Z,13.33
2018-12-23T12:37:58.242Z,25.10
2018-12-23T12:40:26.934Z,19.60
2018-12-23T12:42:56.473Z,16.23
2018-12-23T12:45:25.133Z,15.73
2018-12-23T12:47:53.882Z,16.07
2018-12-23T12:50:22.484Z,18.30
2018-12-23T12:52:52.560Z,14.63
2018-12-23T12:55:21.477Z,15.33
2018-12-23T12:57:50.224Z,22.33
2018-12-23T13:00:18.857Z,15.20
2018-12-23T13:02:47.445Z,31.37
2018-12-23T13:05:16.135Z,22.77
2018-12-23T13:07:44.893Z,29.70
2018-12-23T13:10:13.720Z,34.63
2018-12-23T13:12:42.448Z,29.90
2018-12-23T13:15:11.179Z,27.03
2018-12-23T13:17:40.284Z,26.23
2018-12-23T13:20:09.102Z,22.23
2018-12-23T13:22:38.291Z,20.03
2018-12-23T13:25:07.721Z,16.37
2018-12-23T13:27:36.483Z,15.83
2018-12-23T13:30:05.358Z,26.00
2018-12-23T13:32:34.221Z,21.07
2018-12-23T13:35:03.071Z,8.70
2018-12-23T13:37:31.782Z,18.07
2018-12-23T13:40:05.463Z,16.47
2018-12-23T13:44:42.553Z,12.70
2018-12-23T13:47:21.674Z,12.83
2018-12-23T13:49:58.745Z,16.37
2018-12-23T13:52:33.072Z,11.63
2018-12-23T13:55:10.837Z,14.57
2018-12-23T13:57:49.506Z,13.60
2018-12-23T14:00:24.332Z,16.47
2018-12-23T14:02:55.746Z,10.70
2018-12-23T14:07:36.859Z,10.93
2018-12-23T14:10:20.079Z,12.10
2018-12-23T14:12:49.360Z,10.27
2018-12-23T14:15:18.604Z,12.37
2018-12-23T14:17:47.805Z,9.17
2018-12-23T14:20:16.930Z,8.73
2018-12-23T14:22:46.036Z,10.60
2018-12-23T14:25:15.141Z,14.67
2018-12-23T14:27:44.229Z,11.33
2018-12-23T14:30:13.322Z,9.50
2018-12-23T14:32:42.314Z,11.27
2018-12-23T14:35:11.321Z,10.37
2018-12-23T14:37:40.424Z,14.93
2018-12-23T14:40:09.510Z,20.30
2018-12-23T14:42:38.500Z,24.53
2018-12-23T14:45:07.551Z,14.07
2018-12-23T14:47:36.535Z,53.13
2018-12-23T14:50:07.411Z,16.77
2018-12-23T14:52:36.575Z,40.50
2018-12-23T14:55:05.806Z,28.03
2018-12-23T14:57:34.786Z,26.37
2018-12-23T15:00:04.742Z,43.90
2018-12-23T15:02:33.755Z,18.10
2018-12-23T15:05:03.262Z,15.20
2018-12-23T15:07:32.204Z,19.70
2018-12-23T15:10:01.513Z,16.00
2018-12-23T15:12:30.536Z,19.03
2018-12-23T15:14:59.542Z,10.43
2018-12-23T15:17:28.432Z,15.07
2018-12-23T15:19:58.051Z,19.00
2018-12-23T15:22:27.401Z,16.57
2018-12-23T15:24:56.384Z,14.70
2018-12-23T15:27:25.432Z,13.33
2018-12-23T15:33:25.932Z,14.80
2018-12-23T15:38:49.907Z,12.73
2018-12-23T15:44:14.356Z,13.33
2018-12-23T15:46:56.083Z,9.30
2018-12-23T15:49:37.347Z,10.80
2018-12-23T15:52:18.956Z,7.97
2018-12-23T15:55:00.655Z,15.13
2018-12-23T15:57:42.245Z,9.53
2018-12-23T16:00:24.083Z,11.30
2018-12-23T16:03:05.345Z,16.37
2018-12-23T16:05:47.123Z,12.40
2018-12-23T16:08:28.540Z,11.03
2018-12-23T16:11:09.866Z,9.33
2018-12-23T16:13:51.398Z,13.67
2018-12-23T16:16:32.807Z,9.33
2018-12-23T16:21:57.166Z,11.27
2018-12-23T16:24:38.670Z,12.13
2018-12-23T16:27:20.008Z,9.77
2018-12-23T16:30:01.319Z,10.33
2018-12-23T16:32:42.345Z,6.53
2018-12-23T16:35:23.987Z,7.17
2018-12-23T16:38:05.459Z,6.57
2018-12-23T16:40:47.216Z,19.90
2018-12-23T16:43:35.895Z,12.37
2018-12-23T16:46:24.666Z,19.10
2018-12-23T16:49:13.401Z,9.90
2018-12-23T16:52:02.186Z,8.37
2018-12-23T16:54:50.920Z,5.40
2018-12-23T17:00:54.194Z,7.23
2018-12-23T17:03:42.956Z,11.13
2018-12-23T17:06:31.726Z,9.27
2018-12-23T17:09:20.512Z,6.17
2018-12-23T17:12:09.319Z,12.10
2018-12-23T17:18:06.231Z,6.20
2018-12-23T17:20:54.982Z,7.93
2018-12-23T17:26:58.757Z,7.47
2018-12-23T17:29:47.591Z,7.53
2018-12-23T17:32:36.375Z,7.90
2018-12-23T17:35:25.130Z,6.97
2018-12-23T17:38:06.777Z,6.93
2018-12-23T17:40:48.201Z,8.23
2018-12-23T17:43:30.098Z,4.03
2018-12-23T17:46:14.649Z,6.77
2018-12-23T17:48:56.108Z,7.27
2018-12-23T17:51:37.158Z,7.43
2018-12-23T17:54:18.291Z,9.47
2018-12-23T17:56:59.427Z,6.47
2018-12-23T17:59:40.797Z,5.60
2018-12-23T18:02:22.714Z,6.63
2018-12-23T18:05:04.285Z,10.33
2018-12-23T18:07:45.531Z,9.83
2018-12-23T18:10:26.759Z,8.17
2018-12-23T18:13:08.518Z,10.17
2018-12-23T18:15:50.240Z,9.10
2018-12-23T18:18:31.761Z,8.33
2018-12-23T18:21:13.020Z,10.20
2018-12-23T18:23:54.268Z,10.27
2018-12-23T18:26:36.123Z,11.47
2018-12-23T18:29:17.616Z,11.87
2018-12-23T18:31:58.822Z,9.67
2018-12-23T18:34:40.128Z,8.60
2018-12-23T18:37:21.438Z,7.93
2018-12-23T18:40:02.748Z,11.37
2018-12-23T18:42:44.499Z,14.80
2018-12-23T18:45:26.212Z,9.10
2018-12-23T18:48:07.354Z,11.90
2018-12-23T18:50:48.605Z,8.07
2018-12-23T18:53:29.838Z,10.90
2018-12-23T18:56:11.001Z,8.00
2018-12-23T18:58:52.183Z,8.13
2018-12-23T19:01:33.594Z,8.57
2018-12-23T19:04:15.128Z,9.37
2018-12-23T19:06:56.545Z,10.37
2018-12-23T19:09:37.720Z,7.53
2018-12-23T19:12:19.040Z,7.07
2018-12-23T19:15:00.301Z,6.80
2018-12-23T19:17:41.437Z,9.53
2018-12-23T19:20:22.740Z,6.10
2018-12-23T19:23:04.090Z,6.83
2018-12-23T19:25:45.471Z,9.37
2018-12-23T19:28:26.895Z,5.57
2018-12-23T19:31:08.048Z,5.70
2018-12-23T19:33:49.293Z,5.20
2018-12-23T19:36:30.854Z,4.37
2018-12-23T19:39:12.139Z,3.70
2018-12-23T19:41:53.753Z,5.40
2018-12-23T19:44:34.879Z,6.87
2018-12-23T19:47:16.163Z,8.10
2018-12-23T19:49:57.293Z,6.00
2018-12-23T19:52:39.256Z,3.47
2018-12-23T19:55:21.092Z,4.90
2018-12-23T19:58:02.471Z,5.73
2018-12-23T20:00:44.186Z,7.13
2018-12-23T20:03:25.270Z,6.53
2018-12-23T20:06:06.897Z,14.10
2018-12-23T20:08:47.942Z,9.73
2018-12-23T20:11:29.348Z,11.50
2018-12-23T20:14:10.555Z,5.57
2018-12-23T20:16:52.094Z,8.53
2018-12-23T20:19:33.241Z,9.13
2018-12-23T20:22:14.983Z,8.73
2018-12-23T20:24:56.514Z,6.43
2018-12-23T20:27:37.712Z,6.23
2018-12-23T20:30:19.122Z,5.00
2018-12-23T20:33:00.694Z,7.37
2018-12-23T20:35:42.234Z,7.53
2018-12-23T20:38:24.049Z,7.90
2018-12-23T20:41:07.719Z,11.43
2018-12-23T20:43:48.794Z,11.53
2018-12-23T20:46:30.310Z,12.63
2018-12-23T20:49:11.535Z,15.13
2018-12-23T20:51:52.812Z,16.83
2018-12-23T20:54:34.072Z,13.47
2018-12-23T20:57:15.311Z,15.73
2018-12-23T20:59:56.700Z,17.53
2018-12-23T21:02:37.895Z,16.53
2018-12-23T21:05:19.037Z,11.37
2018-12-23T21:08:00.353Z,11.07
2018-12-23T21:10:42.015Z,9.50
2018-12-23T21:13:23.483Z,9.80
2018-12-23T21:16:04.645Z,7.50
2018-12-23T21:18:45.939Z,5.13
2018-12-23T21:21:27.308Z,5.10
2018-12-23T21:24:08.884Z,5.03
2018-12-23T21:26:50.165Z,5.10
2018-12-23T21:29:31.390Z,5.00
2018-12-23T21:32:12.996Z,6.27
2018-12-23T21:34:54.124Z,4.23
2018-12-23T21:37:35.297Z,4.60
2018-12-23T21:40:16.943Z,5.37
2018-12-23T21:42:58.291Z,4.80
2018-12-23T21:45:39.432Z,5.83
2018-12-23T21:48:21.086Z,6.47
2018-12-23T21:51:02.418Z,5.17
2018-12-23T21:53:43.815Z,4.47
2018-12-23T21:56:25.295Z,5.00
2018-12-23T21:59:06.839Z,5.93
2018-12-23T22:01:48.643Z,7.67
2018-12-23T22:04:30.361Z,8.00
2018-12-23T22:07:11.606Z,3.60
2018-12-23T22:09:53.321Z,4.93
2018-12-23T22:12:34.969Z,6.37
2018-12-23T22:15:16.351Z,6.77
2018-12-23T22:17:58.099Z,6.13
2018-12-23T22:20:39.573Z,7.53
2018-12-23T22:23:09.431Z,4.97
2018-12-23T22:25:39.324Z,3.70
2018-12-23T22:28:09.040Z,6.27
2018-12-23T22:30:38.860Z,11.23
2018-12-23T22:33:08.576Z,5.10
2018-12-23T22:35:38.287Z,6.53
2018-12-23T22:38:08.023Z,5.67
2018-12-23T22:40:39.649Z,10.43
2018-12-23T22:43:09.316Z,11.57
2018-12-23T22:45:39.004Z,13.47
2018-12-23T22:48:08.694Z,5.67
2018-12-23T22:50:38.461Z,12.67
2018-12-23T22:53:08.165Z,7.17
2018-12-23T22:55:37.872Z,3.97
2018-12-23T22:58:07.585Z,8.20
2018-12-23T23:00:37.416Z,5.70
2018-12-23T23:03:09.215Z,5.20
2018-12-23T23:05:38.543Z,5.07
2018-12-23T23:08:08.294Z,7.83
2018-12-23T23:10:38.069Z,5.70
2018-12-23T23:13:07.870Z,3.70
2018-12-23T23:15:37.518Z,4.07
2018-12-23T23:18:07.240Z,3.33
2018-12-23T23:20:37.010Z,5.63
2018-12-23T23:23:06.944Z,5.30
2018-12-23T23:25:36.718Z,5.57
2018-12-23T23:28:06.556Z,8.17
2018-12-23T23:30:36.287Z,6.50
2018-12-23T23:33:05.970Z,4.57
2018-12-23T23:35:35.602Z,4.90
2018-12-23T23:38:05.286Z,4.97
2018-12-23T23:40:35.018Z,5.93
2018-12-23T23:43:04.674Z,4.70
2018-12-23T23:45:34.353Z,6.30
2018-12-23T23:48:03.997Z,12.80
2018-12-23T23:50:33.671Z,11.67
2018-12-23T23:53:03.408Z,6.63
2018-12-23T23:55:33.177Z,3.03
2018-12-23T23:58:02.890Z,6.20
